createdAt,value
2019-01-24T00:00:54.197Z,80.75
2019-01-24T00:01:54.441Z,81.54
2019-01-24T00:02:55.386Z,81
2019-01-24T00:03:54.579Z,80.85
2019-01-24T00:04:54.598Z,81.02
2019-01-24T00:05:54.119Z,81.13
2019-01-24T00:06:54.282Z,81.12
2019-01-24T00:07:55.011Z,81.06
2019-01-24T00:08:54.254Z,81.04
2019-01-24T00:09:54.283Z,80.73
2019-01-24T00:10:55.989Z,80.63
2019-01-24T00:11:54.552Z,80.63
2019-01-24T00:12:54.160Z,80.79
2019-01-24T00:13:54.208Z,80.81
2019-01-24T00:14:54.270Z,81.13
2019-01-24T00:15:54.215Z,80.91
2019-01-24T00:16:54.767Z,80.71
2019-01-24T00:17:54.186Z,80.67
2019-01-24T00:18:54.262Z,80.58
2019-01-24T00:19:54.358Z,80.77
2019-01-24T00:20:54.184Z,80.73
2019-01-24T00:21:55.960Z,80.97
2019-01-24T00:22:54.405Z,80.64
2019-01-24T00:23:54.790Z,80.38
2019-01-24T00:24:54.149Z,80.31
2019-01-24T00:25:54.090Z,80.9
2019-01-24T00:26:54.117Z,80.62
2019-01-24T00:27:54.109Z,80.56
2019-01-24T00:28:54.241Z,80.55
2019-01-24T00:29:54.788Z,80.34
2019-01-24T00:30:54.223Z,80.42
2019-01-24T00:31:54.111Z,80.42
2019-01-24T00:32:54.219Z,80.46
2019-01-24T00:33:54.260Z,81.02
2019-01-24T00:34:54.111Z,80.72
2019-01-24T00:35:54.324Z,80.7
2019-01-24T00:36:54.100Z,80.53
2019-01-24T00:37:54.381Z,80.49
2019-01-24T00:38:54.288Z,80.35
2019-01-24T00:39:54.423Z,80.64
2019-01-24T00:40:54.324Z,80.78
2019-01-24T00:41:54.588Z,80.4
2019-01-24T00:42:54.598Z,80.54
2019-01-24T00:43:54.545Z,80.43
2019-01-24T00:44:54.336Z,80.4
2019-01-24T00:45:54.095Z,80.56
2019-01-24T00:46:54.400Z,80.56
2019-01-24T00:47:54.379Z,80.39
2019-01-24T00:48:54.475Z,80.48
2019-01-24T00:49:55.038Z,80.49
2019-01-24T00:50:54.803Z,80.71
2019-01-24T00:51:54.252Z,80.44
2019-01-24T00:52:54.061Z,79.99
2019-01-24T00:53:54.542Z,80.01
2019-01-24T00:54:54.422Z,80.08
2019-01-24T00:55:54.126Z,79.98
2019-01-24T00:56:54.130Z,79.98
2019-01-24T00:57:54.439Z,80.16
2019-01-24T00:58:54.125Z,80.3
2019-01-24T00:59:54.091Z,80.18
2019-01-24T01:00:54.186Z,79.91
2019-01-24T01:01:54.346Z,80.16
2019-01-24T01:02:54.117Z,80.21
2019-01-24T01:03:54.369Z,79.94
2019-01-24T01:04:54.287Z,80.12
2019-01-24T01:05:54.222Z,79.89
2019-01-24T01:06:54.353Z,80.04
2019-01-24T01:07:54.295Z,80.2
2019-01-24T01:08:54.064Z,79.96
2019-01-24T01:09:54.218Z,79.73
2019-01-24T01:10:54.211Z,79.74
2019-01-24T01:11:54.059Z,79.87
2019-01-24T01:12:54.165Z,80.2
2019-01-24T01:13:54.148Z,79.83
2019-01-24T01:14:54.200Z,79.75
2019-01-24T01:15:54.161Z,79.97
2019-01-24T01:16:54.034Z,79.96
2019-01-24T01:17:54.055Z,79.87
2019-01-24T01:18:54.059Z,80.26
2019-01-24T01:19:54.089Z,80.3
2019-01-24T01:20:54.057Z,79.91
2019-01-24T01:21:54.194Z,79.93
2019-01-24T01:22:54.219Z,79.91
2019-01-24T01:23:54.027Z,80.03
2019-01-24T01:24:54.431Z,79.88
2019-01-24T01:25:54.121Z,80.26
2019-01-24T01:26:54.066Z,80.74
2019-01-24T01:27:54.035Z,80.35
2019-01-24T01:28:55.106Z,80.58
2019-01-24T01:29:54.106Z,80.44
2019-01-24T01:30:54.026Z,80.47
2019-01-24T01:31:53.999Z,80.14
2019-01-24T01:32:54.023Z,80.2
2019-01-24T01:33:54.015Z,80.09
2019-01-24T01:34:54.113Z,80.38
2019-01-24T01:35:53.996Z,80.8
2019-01-24T01:36:53.985Z,80.07
2019-01-24T01:37:54.315Z,80.04
2019-01-24T01:38:54.027Z,79.18
2019-01-24T01:39:54.119Z,78.86
2019-01-24T01:40:54.011Z,78.81
2019-01-24T01:41:54.563Z,79
2019-01-24T01:42:54.235Z,79.2
2019-01-24T01:43:53.989Z,78.87
2019-01-24T01:44:54.035Z,78.81
2019-01-24T01:45:54.043Z,78.61
2019-01-24T01:46:54.055Z,78.76
2019-01-24T01:47:55.709Z,78.64
2019-01-24T01:48:54.071Z,78.58
2019-01-24T01:49:54.181Z,78.54
2019-01-24T01:50:53.992Z,78.53
2019-01-24T01:51:54.325Z,78.38
2019-01-24T01:52:54.038Z,78.36
2019-01-24T01:53:54.199Z,78.55
2019-01-24T01:54:54.626Z,78.27
2019-01-24T01:55:54.840Z,78.35
2019-01-24T01:56:54.118Z,77.98
2019-01-24T01:57:55.112Z,78.17
2019-01-24T01:58:54.845Z,77.78
2019-01-24T01:59:55.175Z,77.8
2019-01-24T02:00:54.053Z,77.58
2019-01-24T02:01:53.992Z,77.95
2019-01-24T02:02:54.488Z,77.9
2019-01-24T02:03:54.190Z,77.73
2019-01-24T02:04:54.024Z,77.72
2019-01-24T02:05:54.026Z,77.37
2019-01-24T02:06:54.457Z,77.64
2019-01-24T02:07:54.217Z,77.81
2019-01-24T02:08:53.987Z,77.74
2019-01-24T02:09:54.223Z,77.57
2019-01-24T02:10:54.225Z,77.39
2019-01-24T02:11:54.242Z,77.42
2019-01-24T02:12:53.976Z,77.7
2019-01-24T02:13:54.040Z,78.34
2019-01-24T02:14:54.248Z,78.54
2019-01-24T02:15:54.205Z,78.95
2019-01-24T02:16:54.017Z,79.01
2019-01-24T02:17:54.020Z,78.1
2019-01-24T02:18:54.059Z,77.75
2019-01-24T02:19:53.973Z,77.14
2019-01-24T02:20:54.420Z,76.91
2019-01-24T02:21:54.509Z,77.12
2019-01-24T02:22:54.091Z,76.97
2019-01-24T02:23:53.956Z,77.15
2019-01-24T02:24:54.162Z,77.32
2019-01-24T02:25:54.053Z,77.43
2019-01-24T02:26:53.935Z,77.17
2019-01-24T02:27:54.237Z,77.24
2019-01-24T02:28:54.143Z,77.12
2019-01-24T02:29:54.255Z,76.92
2019-01-24T02:30:54.154Z,76.59
2019-01-24T02:31:54.366Z,76.77
2019-01-24T02:32:54.514Z,76.84
2019-01-24T02:33:54.000Z,76.42
2019-01-24T02:34:54.395Z,76.86
2019-01-24T02:35:53.948Z,76.83
2019-01-24T02:36:54.021Z,76.67
2019-01-24T02:37:54.086Z,76.57
2019-01-24T02:38:54.042Z,76.55
2019-01-24T02:39:54.185Z,76.35
2019-01-24T02:40:54.224Z,76.27
2019-01-24T02:41:54.232Z,76.47
2019-01-24T02:42:54.251Z,76.68
2019-01-24T02:43:54.255Z,77.11
2019-01-24T02:44:54.290Z,77.4
2019-01-24T02:45:54.023Z,77.65
2019-01-24T02:46:53.893Z,77.77
2019-01-24T02:47:54.486Z,77.89
2019-01-24T02:48:54.008Z,78.24
2019-01-24T02:49:54.791Z,79.1
2019-01-24T02:50:54.200Z,79.16
2019-01-24T02:51:54.207Z,79.24
2019-01-24T02:52:53.961Z,79.01
2019-01-24T02:53:54.326Z,78.81
2019-01-24T02:54:54.425Z,78.92
2019-01-24T02:55:54.766Z,79.44
2019-01-24T02:56:53.926Z,79.32
2019-01-24T02:57:53.858Z,79.61
2019-01-24T02:58:54.241Z,79.74
2019-01-24T02:59:54.157Z,79.38
2019-01-24T03:00:53.849Z,79.46
2019-01-24T03:01:53.864Z,79.71
2019-01-24T03:02:54.003Z,79.96
2019-01-24T03:03:54.250Z,79.67
2019-01-24T03:04:56.987Z,79.69
2019-01-24T03:05:53.920Z,79.84
2019-01-24T03:06:54.041Z,79.57
2019-01-24T03:07:53.915Z,79.73
2019-01-24T03:08:53.832Z,79.68
2019-01-24T03:09:54.002Z,79.67
2019-01-24T03:10:53.879Z,79.61
2019-01-24T03:11:53.934Z,79.77
2019-01-24T03:12:54.034Z,79.46
2019-01-24T03:13:53.872Z,79.42
2019-01-24T03:14:53.957Z,79.46
2019-01-24T03:15:53.990Z,79.26
2019-01-24T03:16:54.110Z,79.56
2019-01-24T03:17:53.936Z,79.72
2019-01-24T03:18:54.180Z,79.55
2019-01-24T03:19:54.116Z,79.46
2019-01-24T03:20:53.850Z,79.37
2019-01-24T03:21:54.027Z,79.78
2019-01-24T03:22:54.200Z,79.94
2019-01-24T03:23:53.869Z,79.34
2019-01-24T03:24:54.116Z,79.08
2019-01-24T03:25:53.893Z,78.92
2019-01-24T03:26:53.830Z,79.21
2019-01-24T03:27:53.914Z,79.32
2019-01-24T03:28:54.108Z,79.5
2019-01-24T03:29:53.964Z,79.75
2019-01-24T03:30:54.075Z,79.7
2019-01-24T03:31:53.842Z,80.05
2019-01-24T03:32:54.181Z,79.94
2019-01-24T03:33:54.004Z,79.95
2019-01-24T03:34:54.087Z,79.75
2019-01-24T03:35:54.097Z,80.08
2019-01-24T03:36:53.902Z,80.09
2019-01-24T03:37:53.610Z,80.33
2019-01-24T03:38:54.336Z,80
2019-01-24T03:39:54.007Z,80.34
2019-01-24T03:40:54.223Z,80.54
2019-01-24T03:41:53.874Z,80.67
2019-01-24T03:42:53.865Z,80.79
2019-01-24T03:43:53.859Z,80.75
2019-01-24T03:44:54.081Z,81.2
2019-01-24T03:45:53.799Z,80.93
2019-01-24T03:46:53.775Z,80.74
2019-01-24T03:47:53.914Z,80.49
2019-01-24T03:48:53.772Z,80.51
2019-01-24T03:49:53.906Z,80.23
2019-01-24T03:50:54.138Z,80.1
2019-01-24T03:51:54.324Z,79.99
2019-01-24T03:52:53.911Z,80.15
2019-01-24T03:53:54.119Z,80.31
2019-01-24T03:54:53.954Z,80.12
2019-01-24T03:55:53.974Z,80.04
2019-01-24T03:56:53.877Z,80.15
2019-01-24T03:57:54.058Z,79.99
2019-01-24T03:58:53.962Z,79.82
2019-01-24T03:59:54.163Z,80.1
2019-01-24T04:00:53.802Z,80.03
2019-01-24T04:01:53.882Z,79.86
2019-01-24T04:02:53.797Z,79.81
2019-01-24T04:03:53.803Z,79.76
2019-01-24T04:04:53.767Z,79.7
2019-01-24T04:05:53.994Z,79.48
2019-01-24T04:06:54.236Z,79.28
2019-01-24T04:07:54.649Z,78.22
2019-01-24T04:08:54.017Z,78.64
2019-01-24T04:09:54.023Z,78.68
2019-01-24T04:10:54.855Z,78.68
2019-01-24T04:11:54.054Z,78.48
2019-01-24T04:12:53.771Z,78.64
2019-01-24T04:13:54.058Z,78.47
2019-01-24T04:14:54.257Z,78.44
2019-01-24T04:15:53.969Z,78.29
2019-01-24T04:16:53.997Z,78.08
2019-01-24T04:17:55.117Z,77.99
2019-01-24T04:18:54.085Z,77.86
2019-01-24T04:19:54.088Z,77.75
2019-01-24T04:20:54.235Z,77.59
2019-01-24T04:21:54.106Z,77.62
2019-01-24T04:22:53.735Z,77.76
2019-01-24T04:23:55.528Z,77.42
2019-01-24T04:24:53.742Z,77.81
2019-01-24T04:25:53.731Z,77.55
2019-01-24T04:26:53.799Z,77.39
2019-01-24T04:27:53.874Z,77.53
2019-01-24T04:28:53.793Z,77.64
2019-01-24T04:29:53.982Z,77.39
2019-01-24T04:30:53.977Z,77.27
2019-01-24T04:31:53.983Z,77.04
2019-01-24T04:32:55.674Z,77.1
2019-01-24T04:33:54.350Z,76.47
2019-01-24T04:34:55.393Z,76.86
2019-01-24T04:35:54.006Z,77.07
2019-01-24T04:36:53.785Z,77
2019-01-24T04:37:53.716Z,76.84
2019-01-24T04:38:53.696Z,77.13
2019-01-24T04:39:53.759Z,76.9
2019-01-24T04:40:53.705Z,77.08
2019-01-24T04:41:53.740Z,76.82
2019-01-24T04:42:53.694Z,76.97
2019-01-24T04:43:53.732Z,76.86
2019-01-24T04:45:53.739Z,76.82
2019-01-24T04:46:53.830Z,76.89
2019-01-24T04:47:54.015Z,76.95
2019-01-24T04:48:53.715Z,77
2019-01-24T04:49:54.210Z,77.1
2019-01-24T04:50:53.678Z,76.82
2019-01-24T04:51:53.708Z,76.78
2019-01-24T04:52:53.707Z,76.68
2019-01-24T04:53:53.707Z,76.87
2019-01-24T04:54:54.116Z,76.76
2019-01-24T04:55:53.713Z,76.49
2019-01-24T04:56:53.778Z,76.62
2019-01-24T04:57:54.948Z,76.74
2019-01-24T04:58:53.677Z,76.57
2019-01-24T04:59:54.106Z,76.51
2019-01-24T05:00:54.004Z,76.7
2019-01-24T05:01:53.779Z,76.64
2019-01-24T05:02:54.029Z,76.78
2019-01-24T05:03:53.726Z,76.77
2019-01-24T05:04:53.694Z,76.79
2019-01-24T05:05:53.727Z,76.92
2019-01-24T05:06:53.683Z,77.04
2019-01-24T05:07:53.923Z,76.96
2019-01-24T05:08:53.729Z,76.88
2019-01-24T05:09:54.029Z,76.83
2019-01-24T05:10:53.768Z,77.04
2019-01-24T05:11:53.733Z,76.97
2019-01-24T05:12:53.754Z,76.97
2019-01-24T05:13:54.156Z,77.2
2019-01-24T05:14:54.057Z,77.17
2019-01-24T05:15:53.696Z,77.07
2019-01-24T05:16:55.245Z,77.27
2019-01-24T05:17:53.700Z,77.29
2019-01-24T05:18:54.102Z,77.37
2019-01-24T05:19:54.406Z,77.27
2019-01-24T05:20:53.722Z,77.38
2019-01-24T05:21:53.829Z,77.39
2019-01-24T05:22:54.132Z,77.43
2019-01-24T05:23:54.128Z,77.45
2019-01-24T05:24:53.916Z,77.49
2019-01-24T05:25:54.244Z,77.57
2019-01-24T05:26:53.954Z,77.59
2019-01-24T05:27:53.883Z,77.47
2019-01-24T05:28:54.158Z,77.37
2019-01-24T05:29:53.801Z,77.5
2019-01-24T05:30:54.065Z,77.47
2019-01-24T05:31:53.598Z,77.6
2019-01-24T05:32:55.332Z,77.63
2019-01-24T05:33:53.749Z,77.6
2019-01-24T05:34:54.301Z,77.71
2019-01-24T05:35:54.006Z,77.59
2019-01-24T05:36:53.755Z,77.65
2019-01-24T05:37:54.532Z,77.71
2019-01-24T05:38:53.702Z,77.57
2019-01-24T05:39:53.823Z,77.65
2019-01-24T05:40:53.779Z,77.51
2019-01-24T05:41:53.627Z,77.53
2019-01-24T05:42:53.780Z,77.43
2019-01-24T05:43:53.716Z,77.35
2019-01-24T05:44:54.466Z,77.31
2019-01-24T05:45:53.604Z,77.36
2019-01-24T05:46:53.844Z,77.36
2019-01-24T05:47:53.651Z,77.38
2019-01-24T05:48:53.755Z,77.42
2019-01-24T05:49:53.695Z,77.32
2019-01-24T05:50:53.746Z,77.47
2019-01-24T05:51:54.245Z,77.42
2019-01-24T05:52:53.716Z,77.44
2019-01-24T05:53:53.589Z,77.41
2019-01-24T05:54:54.035Z,77.46
2019-01-24T05:55:53.580Z,77.55
2019-01-24T05:56:53.692Z,77.6
2019-01-24T05:57:53.860Z,77.63
2019-01-24T05:58:53.754Z,77.67
2019-01-24T05:59:53.759Z,77.72
2019-01-24T06:00:55.279Z,77.58
2019-01-24T06:01:53.595Z,77.49
2019-01-24T06:02:53.783Z,77.66
2019-01-24T06:03:53.563Z,77.72
2019-01-24T06:04:53.949Z,77.79
2019-01-24T06:05:53.579Z,77.74
2019-01-24T06:06:53.634Z,77.71
2019-01-24T06:07:53.841Z,77.7
2019-01-24T06:08:55.489Z,77.71
2019-01-24T06:09:53.560Z,77.65
2019-01-24T06:10:53.695Z,77.63
2019-01-24T06:11:53.880Z,77.61
2019-01-24T06:12:55.361Z,77.56
2019-01-24T06:13:53.626Z,77.31
2019-01-24T06:14:53.757Z,77.41
2019-01-24T06:15:54.512Z,77.6
2019-01-24T06:16:55.236Z,77.61
2019-01-24T06:17:53.577Z,77.55
2019-01-24T06:18:55.036Z,77.61
2019-01-24T06:19:53.649Z,77.62
2019-01-24T06:20:54.888Z,77.74
2019-01-24T06:21:53.561Z,77.82
2019-01-24T06:22:53.611Z,77.75
2019-01-24T06:23:53.548Z,77.81
2019-01-24T06:24:53.713Z,77.79
2019-01-24T06:25:53.613Z,77.76
2019-01-24T06:26:53.691Z,77.73
2019-01-24T06:27:53.913Z,77.8
2019-01-24T06:28:53.526Z,77.81
2019-01-24T06:29:53.594Z,77.85
2019-01-24T06:30:56.543Z,77.88
2019-01-24T06:31:53.504Z,78.04
2019-01-24T06:32:53.553Z,77.9
2019-01-24T06:33:53.595Z,77.96
2019-01-24T06:34:53.738Z,78
2019-01-24T06:35:53.580Z,78
2019-01-24T06:36:54.333Z,78.14
2019-01-24T06:37:53.600Z,78.17
2019-01-24T06:38:53.556Z,78.17
2019-01-24T06:39:53.529Z,78.3
2019-01-24T06:40:53.589Z,78.29
2019-01-24T06:41:53.569Z,78.29
2019-01-24T06:42:53.947Z,78.25
2019-01-24T06:43:53.594Z,78.2
2019-01-24T06:44:53.545Z,78.21
2019-01-24T06:45:53.614Z,78.16
2019-01-24T06:46:53.615Z,78.18
2019-01-24T06:47:53.617Z,78.19
2019-01-24T06:48:53.645Z,78.22
2019-01-24T06:49:53.806Z,78.38
2019-01-24T06:50:53.538Z,78.2
2019-01-24T06:51:55.154Z,78.42
2019-01-24T06:52:55.268Z,78.49
2019-01-24T06:53:53.637Z,78.24
2019-01-24T06:54:54.038Z,78.43
2019-01-24T06:55:53.733Z,78.25
2019-01-24T06:56:53.761Z,78.48
2019-01-24T06:57:53.557Z,78.32
2019-01-24T06:58:53.491Z,78.44
2019-01-24T06:59:54.179Z,78.43
2019-01-24T07:00:54.489Z,78.45
2019-01-24T07:01:53.952Z,78.56
2019-01-24T07:02:54.735Z,78.45
2019-01-24T07:03:53.801Z,78.49
2019-01-24T07:04:53.714Z,78.54
2019-01-24T07:05:55.394Z,78.5
2019-01-24T07:06:53.524Z,78.66
2019-01-24T07:07:53.501Z,78.63
2019-01-24T07:08:53.603Z,78.58
2019-01-24T07:09:53.509Z,78.64
2019-01-24T07:10:53.682Z,78.5
2019-01-24T07:11:53.685Z,78.77
2019-01-24T07:12:53.515Z,78.71
2019-01-24T07:13:53.767Z,79.02
2019-01-24T07:14:53.445Z,79.1
2019-01-24T07:15:53.563Z,79.33
2019-01-24T07:16:53.569Z,79.32
2019-01-24T07:17:53.722Z,79.26
2019-01-24T07:18:53.820Z,79.07
2019-01-24T07:19:53.501Z,79.16
2019-01-24T07:20:53.552Z,79.01
2019-01-24T07:21:54.774Z,78.86
2019-01-24T07:22:53.469Z,79.06
2019-01-24T07:23:53.753Z,78.97
2019-01-24T07:24:53.400Z,78.85
2019-01-24T07:25:54.187Z,78.39
2019-01-24T07:26:53.460Z,78.35
2019-01-24T07:27:54.722Z,77.92
2019-01-24T07:28:53.443Z,77.94
2019-01-24T07:29:54.270Z,77.89
2019-01-24T07:30:53.556Z,78.46
2019-01-24T07:31:53.581Z,78.87
2019-01-24T07:32:53.698Z,78.82
2019-01-24T07:33:53.598Z,78.62
2019-01-24T07:34:53.450Z,78.65
2019-01-24T07:35:53.648Z,78.61
2019-01-24T07:36:54.131Z,78.45
2019-01-24T07:37:53.420Z,78.18
2019-01-24T07:38:53.434Z,78.38
2019-01-24T07:39:53.512Z,78.47
2019-01-24T07:40:53.493Z,78.43
2019-01-24T07:41:53.576Z,78.35
2019-01-24T07:42:53.562Z,78.25
2019-01-24T07:43:53.673Z,77.37
2019-01-24T07:44:53.671Z,77.22
2019-01-24T07:45:53.478Z,77.03
2019-01-24T07:46:54.252Z,77.07
2019-01-24T07:47:53.591Z,77.18
2019-01-24T07:48:53.543Z,77.21
2019-01-24T07:49:53.709Z,77
2019-01-24T07:50:53.384Z,77.21
2019-01-24T07:51:53.647Z,77.04
2019-01-24T07:52:53.814Z,76.86
2019-01-24T07:53:53.603Z,76.77
2019-01-24T07:54:53.462Z,76.79
2019-01-24T07:55:53.474Z,77.05
2019-01-24T07:56:53.660Z,76.44
2019-01-24T07:57:53.430Z,76.22
2019-01-24T07:58:54.899Z,76.44
2019-01-24T07:59:53.423Z,76.46
2019-01-24T08:00:53.586Z,76.43
2019-01-24T08:01:53.620Z,76.45
2019-01-24T08:02:53.551Z,76.16
2019-01-24T08:03:53.549Z,76.15
2019-01-24T08:04:53.429Z,76.38
2019-01-24T08:05:53.649Z,77.57
2019-01-24T08:06:53.397Z,78.42
2019-01-24T08:07:53.367Z,78.68
2019-01-24T08:08:53.411Z,78.83
2019-01-24T08:09:53.387Z,78.81
2019-01-24T08:10:53.536Z,79.22
2019-01-24T08:11:53.394Z,79.52
2019-01-24T08:12:53.370Z,79.79
2019-01-24T08:13:53.410Z,79.85
2019-01-24T08:14:53.480Z,79.81
2019-01-24T08:15:53.402Z,79.71
2019-01-24T08:16:53.410Z,79.53
2019-01-24T08:17:53.376Z,79.72
2019-01-24T08:18:53.387Z,79.86
2019-01-24T08:19:53.395Z,79.7
2019-01-24T08:20:53.364Z,79.41
2019-01-24T08:21:53.573Z,79.24
2019-01-24T08:22:53.393Z,79.09
2019-01-24T08:23:53.399Z,78.99
2019-01-24T08:24:53.375Z,79.39
2019-01-24T08:25:53.661Z,79.1
2019-01-24T08:26:53.418Z,78.89
2019-01-24T08:27:55.156Z,78.94
2019-01-24T08:28:53.413Z,78.77
2019-01-24T08:29:55.838Z,78.8
2019-01-24T08:30:53.846Z,78.54
2019-01-24T08:31:53.414Z,78.58
2019-01-24T08:32:53.615Z,78.71
2019-01-24T08:33:53.740Z,78.79
2019-01-24T08:34:53.511Z,78.76
2019-01-24T08:35:53.462Z,78.71
2019-01-24T08:36:53.317Z,77.63
2019-01-24T08:37:53.367Z,77.78
2019-01-24T08:38:59.728Z,77.65
2019-01-24T08:39:53.380Z,77.62
2019-01-24T08:40:53.646Z,77.48
2019-01-24T08:41:54.981Z,77.75
2019-01-24T08:42:53.474Z,77.54
2019-01-24T08:43:53.596Z,77.34
2019-01-24T08:44:53.316Z,77.54
2019-01-24T08:45:53.430Z,77.79
2019-01-24T08:46:53.354Z,77.57
2019-01-24T08:47:53.330Z,77.59
2019-01-24T08:48:54.162Z,77.8
2019-01-24T08:49:53.502Z,78.21
2019-01-24T08:50:53.289Z,77.98
2019-01-24T08:51:53.353Z,77.88
2019-01-24T08:52:53.522Z,77.77
2019-01-24T08:53:53.356Z,77.71
2019-01-24T08:54:53.645Z,77.55
2019-01-24T08:55:53.587Z,77.69
2019-01-24T08:56:53.456Z,77.7
2019-01-24T08:57:53.944Z,77.91
2019-01-24T08:58:55.180Z,78.04
2019-01-24T08:59:53.375Z,77.89
2019-01-24T09:00:53.303Z,78.1
2019-01-24T09:01:53.413Z,78.2
2019-01-24T09:02:53.366Z,77.61
2019-01-24T09:03:53.715Z,77.61
2019-01-24T09:04:53.448Z,77.47
2019-01-24T09:05:53.819Z,77.77
2019-01-24T09:06:53.604Z,77.66
2019-01-24T09:07:53.391Z,77.56
2019-01-24T09:08:53.293Z,77.5
2019-01-24T09:09:53.624Z,77.57
2019-01-24T09:10:53.387Z,78.06
2019-01-24T09:11:53.483Z,77.86
2019-01-24T09:12:53.436Z,77.64
2019-01-24T09:13:53.895Z,77.5
2019-01-24T09:14:53.607Z,77.96
2019-01-24T09:15:53.594Z,78.31
2019-01-24T09:16:53.284Z,78.75
2019-01-24T09:17:53.361Z,78.25
2019-01-24T09:18:53.248Z,78.41
2019-01-24T09:19:54.199Z,78.13
2019-01-24T09:20:53.498Z,78.04
2019-01-24T09:21:53.428Z,78.25
2019-01-24T09:22:55.254Z,78.14
2019-01-24T09:23:53.369Z,78.26
2019-01-24T09:24:53.236Z,78.73
2019-01-24T09:25:53.503Z,78.64
2019-01-24T09:26:53.547Z,79.04
2019-01-24T09:27:53.226Z,78.24
2019-01-24T09:28:55.058Z,78.83
2019-01-24T09:29:53.254Z,78.67
2019-01-24T09:30:54.776Z,78.63
2019-01-24T09:31:53.336Z,78.66
2019-01-24T09:32:53.264Z,78.72
2019-01-24T09:33:53.317Z,78.58
2019-01-24T09:34:53.377Z,78.53
2019-01-24T09:35:53.247Z,77.9
2019-01-24T09:36:53.395Z,78.07
2019-01-24T09:37:53.258Z,78.47
2019-01-24T09:38:55.062Z,78.65
2019-01-24T09:39:55.053Z,79
2019-01-24T09:40:53.665Z,78.59
2019-01-24T09:41:53.513Z,78.7
2019-01-24T09:42:53.438Z,79.15
2019-01-24T09:43:53.344Z,79.16
2019-01-24T09:44:53.301Z,79.09
2019-01-24T09:45:53.501Z,79.25
2019-01-24T09:46:53.308Z,79
2019-01-24T09:47:53.431Z,79.14
2019-01-24T09:48:53.269Z,78.71
2019-01-24T09:49:53.302Z,78.4
2019-01-24T09:50:53.183Z,78.39
2019-01-24T09:51:53.275Z,78.04
2019-01-24T09:52:53.405Z,78.35
2019-01-24T09:53:53.154Z,78.63
2019-01-24T09:54:53.248Z,78.83
2019-01-24T09:55:53.176Z,79.28
2019-01-24T09:56:53.188Z,78.83
2019-01-24T09:57:53.228Z,79.57
2019-01-24T09:58:53.298Z,78.94
2019-01-24T09:59:54.118Z,78.57
2019-01-24T10:00:53.142Z,78.38
2019-01-24T10:01:53.175Z,78.56
2019-01-24T10:02:53.342Z,78.62
2019-01-24T10:03:53.428Z,78.27
2019-01-24T10:04:53.203Z,78.47
2019-01-24T10:05:53.179Z,78.23
2019-01-24T10:06:53.801Z,78.24
2019-01-24T10:07:53.519Z,78.37
2019-01-24T10:08:54.373Z,78.18
2019-01-24T10:09:53.257Z,78.16
2019-01-24T10:10:53.120Z,78.22
2019-01-24T10:11:54.698Z,78.4
2019-01-24T10:12:59.533Z,77.87
2019-01-24T10:13:53.321Z,77.88
2019-01-24T10:14:53.428Z,77.78
2019-01-24T10:15:53.407Z,78.58
2019-01-24T10:16:53.312Z,78.7
2019-01-24T10:17:53.626Z,78.49
2019-01-24T10:18:53.136Z,78.15
2019-01-24T10:19:53.388Z,77.8
2019-01-24T10:20:53.203Z,77.22
2019-01-24T10:21:53.552Z,77.33
2019-01-24T10:22:53.720Z,77.69
2019-01-24T10:23:53.266Z,77.63
2019-01-24T10:26:53.719Z,77.63
2019-01-24T10:27:54.604Z,77.46
2019-01-24T10:28:54.251Z,77.64
2019-01-24T10:29:53.475Z,76.92
2019-01-24T10:30:56.434Z,76.92
2019-01-24T10:32:54.359Z,76.94
2019-01-24T10:33:54.100Z,76.94
2019-01-24T10:34:53.213Z,77.18
2019-01-24T10:35:53.158Z,77.06
2019-01-24T10:36:55.002Z,77.62
2019-01-24T10:37:54.467Z,77.35
2019-01-24T10:38:53.347Z,77.71
2019-01-24T10:39:55.234Z,77.53
2019-01-24T10:40:53.436Z,77.45
2019-01-24T10:41:53.435Z,77.75
2019-01-24T10:42:53.317Z,78.06
2019-01-24T10:44:01.502Z,77.68
2019-01-24T10:44:53.237Z,77.11
2019-01-24T10:45:53.370Z,77.01
2019-01-24T10:46:53.588Z,77.13
2019-01-24T10:47:56.072Z,76.87
2019-01-24T10:49:00.507Z,77
2019-01-24T10:49:54.984Z,76.96
2019-01-24T10:51:53.266Z,77.33
2019-01-24T10:52:53.636Z,77.27
2019-01-24T10:53:54.650Z,77.35
2019-01-24T10:54:53.412Z,76.42
2019-01-24T10:55:54.874Z,76.3
2019-01-24T10:56:54.120Z,76.4
2019-01-24T10:57:54.033Z,76.49
2019-01-24T10:58:53.119Z,76.54
2019-01-24T10:59:53.218Z,76.17
2019-01-24T11:00:53.281Z,76.38
2019-01-24T11:01:53.149Z,76.42
2019-01-24T11:02:53.114Z,76.49
2019-01-24T11:03:53.122Z,76.38
2019-01-24T11:04:53.303Z,75.79
2019-01-24T11:05:53.206Z,76.23
2019-01-24T11:06:54.134Z,76.39
2019-01-24T11:07:53.213Z,76.53
2019-01-24T11:08:53.292Z,76.25
2019-01-24T11:09:53.337Z,76.49
2019-01-24T11:10:53.138Z,76.35
2019-01-24T11:11:53.665Z,76.4
2019-01-24T11:12:53.128Z,76.3
2019-01-24T11:13:53.160Z,76.36
2019-01-24T11:14:53.412Z,76.49
2019-01-24T11:15:53.226Z,76.45
2019-01-24T11:16:53.386Z,76.62
2019-01-24T11:17:54.929Z,76.58
2019-01-24T11:18:53.301Z,76.76
2019-01-24T11:19:53.069Z,76.84
2019-01-24T11:20:53.240Z,76.45
2019-01-24T11:21:53.195Z,76.38
2019-01-24T11:22:53.170Z,76.89
2019-01-24T11:23:53.335Z,76.33
2019-01-24T11:25:53.344Z,76.57
2019-01-24T11:26:53.180Z,76.92
2019-01-24T11:27:53.104Z,76.37
2019-01-24T11:28:53.114Z,76.74
2019-01-24T11:29:53.068Z,76.51
2019-01-24T11:30:53.297Z,76.69
2019-01-24T11:31:53.050Z,76.88
2019-01-24T11:32:53.056Z,76.81
2019-01-24T11:33:53.136Z,77
2019-01-24T11:35:53.082Z,77.79
2019-01-24T11:36:56.971Z,77.08
2019-01-24T11:37:54.153Z,77.33
2019-01-24T11:38:55.262Z,77.21
2019-01-24T11:39:53.188Z,77.76
2019-01-24T11:40:53.236Z,77.53
2019-01-24T11:41:53.061Z,77.63
2019-01-24T11:42:53.222Z,77.6
2019-01-24T11:43:53.050Z,77.87
2019-01-24T11:44:53.057Z,77.45
2019-01-24T11:45:53.416Z,77.37
2019-01-24T11:46:53.033Z,77.78
2019-01-24T11:47:53.297Z,77.88
2019-01-24T11:48:53.424Z,77.74
2019-01-24T11:49:53.043Z,77.76
2019-01-24T11:50:53.053Z,77.79
2019-01-24T11:51:53.479Z,77.94
2019-01-24T11:52:53.092Z,77.66
2019-01-24T11:53:53.351Z,77.58
2019-01-24T11:54:53.078Z,77.62
2019-01-24T11:55:53.005Z,77.7
2019-01-24T11:56:53.365Z,77.97
2019-01-24T11:57:53.126Z,77.26
2019-01-24T11:58:53.181Z,77.24
2019-01-24T11:59:53.034Z,77.49
2019-01-24T12:00:53.196Z,77.47
2019-01-24T12:01:53.109Z,77.42
2019-01-24T12:02:53.209Z,77.87
2019-01-24T12:03:53.012Z,77.83
2019-01-24T12:04:53.080Z,77.66
2019-01-24T12:05:53.227Z,77.73
2019-01-24T12:06:53.154Z,77.75
2019-01-24T12:07:53.175Z,77.7
2019-01-24T12:08:52.963Z,77.57
2019-01-24T12:09:53.081Z,77.48
2019-01-24T12:10:53.259Z,77.42
2019-01-24T12:11:53.830Z,77.12
2019-01-24T12:12:53.170Z,77.3
2019-01-24T12:13:53.087Z,77.29
2019-01-24T12:14:53.287Z,76.94
2019-01-24T12:15:53.044Z,77.22
2019-01-24T12:16:52.952Z,76.98
2019-01-24T12:17:52.962Z,76.94
2019-01-24T12:18:53.141Z,76.76
2019-01-24T12:19:54.789Z,76.67
2019-01-24T12:20:53.026Z,76.44
2019-01-24T12:21:53.506Z,76.8
2019-01-24T12:22:53.282Z,76.31
2019-01-24T12:23:53.557Z,76.64
2019-01-24T12:24:52.957Z,76.03
2019-01-24T12:25:53.164Z,75.71
2019-01-24T12:26:53.297Z,75.53
2019-01-24T12:27:53.893Z,75.46
2019-01-24T12:28:52.998Z,75.55
2019-01-24T12:29:53.074Z,75.45
2019-01-24T12:30:53.082Z,75.17
2019-01-24T12:31:52.720Z,75.57
2019-01-24T12:32:53.415Z,75.33
2019-01-24T12:33:53.474Z,75.06
2019-01-24T12:34:52.976Z,75.22
2019-01-24T12:35:53.224Z,75.05
2019-01-24T12:36:56.724Z,75.13
2019-01-24T12:37:52.971Z,75.18
2019-01-24T12:38:53.657Z,75.11
2019-01-24T12:39:53.252Z,75.13
2019-01-24T12:40:53.223Z,74.99
2019-01-24T12:41:52.934Z,75.53
2019-01-24T12:42:53.372Z,75.39
2019-01-24T12:43:52.911Z,74.84
2019-01-24T12:44:52.890Z,75.23
2019-01-24T12:45:53.601Z,75.21
2019-01-24T12:46:53.192Z,75.33
2019-01-24T12:47:53.242Z,75.16
2019-01-24T12:48:53.314Z,75.29
2019-01-24T12:49:52.978Z,75.37
2019-01-24T12:50:53.328Z,75.6
2019-01-24T12:51:53.144Z,75.71
2019-01-24T12:52:52.975Z,75.48
2019-01-24T12:53:52.925Z,75.57
2019-01-24T12:54:52.871Z,75.2
2019-01-24T12:55:52.968Z,75.14
2019-01-24T12:56:52.909Z,75.11
2019-01-24T12:57:53.174Z,75.54
2019-01-24T12:59:07.701Z,75.58
2019-01-24T12:59:54.116Z,75.53
2019-01-24T13:00:53.193Z,75.69
2019-01-24T13:01:53.097Z,75.76
2019-01-24T13:02:54.750Z,75.67
2019-01-24T13:03:53.342Z,75.63